sensor_id;sensor_type;location;lat;lon;timestamp;P1;durP1;ratioP1;P2;durP2;ratioP2
8652;SDS011;4364;52.426;9.424;2023-11-19T00:00:48;3.27;;;1.30;;
8652;SDS011;4364;52.426;9.424;2023-11-19T00:03:17;3.03;;;1.40;;
8652;SDS011;4364;52.426;9.424;2023-11-19T00:05:44;1.43;;;1.23;;
8652;SDS011;4364;52.426;9.424;2023-11-19T00:08:11;2.37;;;1.50;;
8652;SDS011;4364;52.426;9.424;2023-11-19T00:10:37;1.43;;;1.23;;
8652;SDS011;4364;52.426;9.424;2023-11-19T00:13:04;1.57;;;1.30;;
8652;SDS011;4364;52.426;9.424;2023-11-19T00:15:30;1.43;;;1.33;;
8652;SDS011;4364;52.426;9.424;2023-11-19T00:17:57;1.40;;;1.30;;
8652;SDS011;4364;52.426;9.424;2023-11-19T00:20:27;1.53;;;1.43;;
8652;SDS011;4364;52.426;9.424;2023-11-19T00:22:55;1.80;;;1.50;;
8652;SDS011;4364;52.426;9.424;2023-11-19T00:25:21;2.80;;;1.43;;
8652;SDS011;4364;52.426;9.424;2023-11-19T00:27:48;1.30;;;1.20;;
8652;SDS011;4364;52.426;9.424;2023-11-19T00:30:17;1.67;;;1.33;;
8652;SDS011;4364;52.426;9.424;2023-11-19T00:32:43;1.50;;;1.40;;
8652;SDS011;4364;52.426;9.424;2023-11-19T00:35:10;2.37;;;1.60;;
8652;SDS011;4364;52.426;9.424;2023-11-19T00:37:36;1.50;;;1.40;;
8652;SDS011;4364;52.426;9.424;2023-11-19T00:40:03;1.70;;;1.40;;
8652;SDS011;4364;52.426;9.424;2023-11-19T00:42:32;1.50;;;1.20;;
8652;SDS011;4364;52.426;9.424;2023-11-19T00:44:58;1.50;;;1.30;;
8652;SDS011;4364;52.426;9.424;2023-11-19T00:47:26;1.27;;;1.17;;
8652;SDS011;4364;52.426;9.424;2023-11-19T00:49:53;1.30;;;1.20;;
8652;SDS011;4364;52.426;9.424;2023-11-19T00:52:19;1.70;;;1.40;;
8652;SDS011;4364;52.426;9.424;2023-11-19T00:54:46;2.03;;;1.40;;
8652;SDS011;4364;52.426;9.424;2023-11-19T00:57:13;1.90;;;1.53;;
8652;SDS011;4364;52.426;9.424;2023-11-19T00:59:41;2.07;;;1.50;;
8652;SDS011;4364;52.426;9.424;2023-11-19T01:02:08;1.60;;;1.50;;
8652;SDS011;4364;52.426;9.424;2023-11-19T01:04:35;1.60;;;1.50;;
8652;SDS011;4364;52.426;9.424;2023-11-19T01:07:02;2.03;;;1.60;;
8652;SDS011;4364;52.426;9.424;2023-11-19T01:09:32;1.50;;;1.40;;
8652;SDS011;4364;52.426;9.424;2023-11-19T01:12:01;3.03;;;1.60;;
8652;SDS011;4364;52.426;9.424;2023-11-19T01:14:28;1.50;;;1.40;;
8652;SDS011;4364;52.426;9.424;2023-11-19T01:16:55;1.40;;;1.30;;
8652;SDS011;4364;52.426;9.424;2023-11-19T01:19:22;2.17;;;1.50;;
8652;SDS011;4364;52.426;9.424;2023-11-19T01:21:50;1.63;;;1.50;;
8652;SDS011;4364;52.426;9.424;2023-11-19T01:24:17;2.50;;;1.50;;
8652;SDS011;4364;52.426;9.424;2023-11-19T01:26:44;1.83;;;1.60;;
8652;SDS011;4364;52.426;9.424;2023-11-19T01:29:14;1.70;;;1.60;;
8652;SDS011;4364;52.426;9.424;2023-11-19T01:31:41;1.80;;;1.57;;
8652;SDS011;4364;52.426;9.424;2023-11-19T01:34:13;2.57;;;1.67;;
8652;SDS011;4364;52.426;9.424;2023-11-19T01:36:39;1.80;;;1.30;;
8652;SDS011;4364;52.426;9.424;2023-11-19T01:39:06;2.33;;;1.63;;
8652;SDS011;4364;52.426;9.424;2023-11-19T01:41:36;1.73;;;1.63;;
8652;SDS011;4364;52.426;9.424;2023-11-19T01:44:08;2.63;;;1.50;;
8652;SDS011;4364;52.426;9.424;2023-11-19T01:46:35;2.77;;;1.33;;
8652;SDS011;4364;52.426;9.424;2023-11-19T01:49:02;1.70;;;1.60;;
8652;SDS011;4364;52.426;9.424;2023-11-19T01:51:28;2.13;;;1.80;;
8652;SDS011;4364;52.426;9.424;2023-11-19T01:53:55;1.70;;;1.50;;
8652;SDS011;4364;52.426;9.424;2023-11-19T01:56:23;2.50;;;1.90;;
8652;SDS011;4364;52.426;9.424;2023-11-19T01:58:53;4.13;;;1.90;;
8652;SDS011;4364;52.426;9.424;2023-11-19T02:01:21;2.27;;;1.87;;
8652;SDS011;4364;52.426;9.424;2023-11-19T02:03:48;2.33;;;1.60;;
8652;SDS011;4364;52.426;9.424;2023-11-19T02:06:15;3.00;;;1.90;;
8652;SDS011;4364;52.426;9.424;2023-11-19T02:08:42;1.90;;;1.63;;
8652;SDS011;4364;52.426;9.424;2023-11-19T02:11:09;2.87;;;1.90;;
8652;SDS011;4364;52.426;9.424;2023-11-19T02:13:38;2.50;;;1.80;;
8652;SDS011;4364;52.426;9.424;2023-11-19T02:16:07;1.20;;;1.10;;
8652;SDS011;4364;52.426;9.424;2023-11-19T02:18:36;1.50;;;1.40;;
8652;SDS011;4364;52.426;9.424;2023-11-19T02:21:02;2.33;;;1.60;;
8652;SDS011;4364;52.426;9.424;2023-11-19T02:23:29;2.17;;;1.50;;
8652;SDS011;4364;52.426;9.424;2023-11-19T02:26:02;1.60;;;1.30;;
8652;SDS011;4364;52.426;9.424;2023-11-19T02:28:29;1.43;;;1.33;;
8652;SDS011;4364;52.426;9.424;2023-11-19T02:30:55;1.40;;;1.30;;
8652;SDS011;4364;52.426;9.424;2023-11-19T02:33:22;2.77;;;1.40;;
8652;SDS011;4364;52.426;9.424;2023-11-19T02:35:49;2.70;;;1.33;;
8652;SDS011;4364;52.426;9.424;2023-11-19T02:38:15;1.30;;;1.20;;
8652;SDS011;4364;52.426;9.424;2023-11-19T02:40:42;1.30;;;1.10;;
8652;SDS011;4364;52.426;9.424;2023-11-19T02:43:08;1.63;;;1.40;;
8652;SDS011;4364;52.426;9.424;2023-11-19T02:45:35;2.73;;;1.50;;
8652;SDS011;4364;52.426;9.424;2023-11-19T02:48:02;1.43;;;1.33;;
8652;SDS011;4364;52.426;9.424;2023-11-19T02:50:29;1.93;;;1.50;;
8652;SDS011;4364;52.426;9.424;2023-11-19T02:52:55;2.23;;;1.90;;
8652;SDS011;4364;52.426;9.424;2023-11-19T02:55:23;1.77;;;1.67;;
8652;SDS011;4364;52.426;9.424;2023-11-19T02:57:51;2.43;;;2.00;;
8652;SDS011;4364;52.426;9.424;2023-11-19T03:00:22;2.47;;;1.90;;
8652;SDS011;4364;52.426;9.424;2023-11-19T03:03:02;2.63;;;2.13;;
8652;SDS011;4364;52.426;9.424;2023-11-19T03:05:46;2.70;;;1.97;;
8652;SDS011;4364;52.426;9.424;2023-11-19T03:08:16;2.77;;;1.97;;
8652;SDS011;4364;52.426;9.424;2023-11-19T03:10:46;2.10;;;1.90;;
8652;SDS011;4364;52.426;9.424;2023-11-19T03:13:13;2.40;;;2.20;;
8652;SDS011;4364;52.426;9.424;2023-11-19T03:15:40;3.87;;;3.00;;
8652;SDS011;4364;52.426;9.424;2023-11-19T03:18:07;3.50;;;2.50;;
8652;SDS011;4364;52.426;9.424;2023-11-19T03:20:34;3.97;;;2.60;;
8652;SDS011;4364;52.426;9.424;2023-11-19T03:23:01;6.53;;;2.70;;
8652;SDS011;4364;52.426;9.424;2023-11-19T03:25:28;3.20;;;2.90;;
8652;SDS011;4364;52.426;9.424;2023-11-19T03:28:00;3.23;;;2.90;;
8652;SDS011;4364;52.426;9.424;2023-11-19T03:30:32;3.30;;;3.00;;
8652;SDS011;4364;52.426;9.424;2023-11-19T03:33:00;3.90;;;3.03;;
8652;SDS011;4364;52.426;9.424;2023-11-19T03:35:27;3.80;;;3.40;;
8652;SDS011;4364;52.426;9.424;2023-11-19T03:37:56;5.10;;;3.87;;
8652;SDS011;4364;52.426;9.424;2023-11-19T03:40:23;6.90;;;4.67;;
8652;SDS011;4364;52.426;9.424;2023-11-19T03:42:52;7.60;;;4.80;;
8652;SDS011;4364;52.426;9.424;2023-11-19T03:45:19;9.37;;;5.87;;
8652;SDS011;4364;52.426;9.424;2023-11-19T03:47:45;7.80;;;6.07;;
8652;SDS011;4364;52.426;9.424;2023-11-19T03:50:12;7.97;;;5.97;;
8652;SDS011;4364;52.426;9.424;2023-11-19T03:52:38;8.27;;;6.80;;
8652;SDS011;4364;52.426;9.424;2023-11-19T03:55:08;8.50;;;6.57;;
8652;SDS011;4364;52.426;9.424;2023-11-19T03:57:35;8.67;;;6.87;;
8652;SDS011;4364;52.426;9.424;2023-11-19T04:00:02;9.20;;;7.00;;
8652;SDS011;4364;52.426;9.424;2023-11-19T04:02:38;11.53;;;7.37;;
8652;SDS011;4364;52.426;9.424;2023-11-19T04:05:05;9.50;;;7.43;;
8652;SDS011;4364;52.426;9.424;2023-11-19T04:07:32;9.67;;;7.90;;
8652;SDS011;4364;52.426;9.424;2023-11-19T04:09:59;11.90;;;8.20;;
8652;SDS011;4364;52.426;9.424;2023-11-19T04:12:26;14.47;;;8.90;;
8652;SDS011;4364;52.426;9.424;2023-11-19T04:14:53;13.67;;;9.30;;
8652;SDS011;4364;52.426;9.424;2023-11-19T04:17:22;12.10;;;8.97;;
8652;SDS011;4364;52.426;9.424;2023-11-19T04:19:49;13.30;;;8.43;;
8652;SDS011;4364;52.426;9.424;2023-11-19T04:22:16;14.67;;;9.10;;
8652;SDS011;4364;52.426;9.424;2023-11-19T04:24:43;14.33;;;9.53;;
8652;SDS011;4364;52.426;9.424;2023-11-19T04:27:12;13.93;;;9.23;;
8652;SDS011;4364;52.426;9.424;2023-11-19T04:29:39;15.13;;;10.37;;
8652;SDS011;4364;52.426;9.424;2023-11-19T04:32:05;14.27;;;10.77;;
8652;SDS011;4364;52.426;9.424;2023-11-19T04:34:32;17.33;;;10.67;;
8652;SDS011;4364;52.426;9.424;2023-11-19T04:36:59;13.00;;;10.63;;
8652;SDS011;4364;52.426;9.424;2023-11-19T04:39:40;17.20;;;11.40;;
8652;SDS011;4364;52.426;9.424;2023-11-19T04:42:06;17.53;;;12.27;;
8652;SDS011;4364;52.426;9.424;2023-11-19T04:44:33;14.60;;;10.93;;
8652;SDS011;4364;52.426;9.424;2023-11-19T04:46:59;16.83;;;12.23;;
8652;SDS011;4364;52.426;9.424;2023-11-19T04:49:28;18.10;;;12.20;;
8652;SDS011;4364;52.426;9.424;2023-11-19T04:51:56;19.33;;;12.13;;
8652;SDS011;4364;52.426;9.424;2023-11-19T04:54:23;21.33;;;12.93;;
8652;SDS011;4364;52.426;9.424;2023-11-19T04:56:50;21.80;;;12.90;;
8652;SDS011;4364;52.426;9.424;2023-11-19T04:59:17;20.10;;;13.37;;
8652;SDS011;4364;52.426;9.424;2023-11-19T05:01:46;17.37;;;12.70;;
8652;SDS011;4364;52.426;9.424;2023-11-19T05:04:14;19.83;;;13.23;;
8652;SDS011;4364;52.426;9.424;2023-11-19T05:06:42;20.17;;;13.43;;
8652;SDS011;4364;52.426;9.424;2023-11-19T05:09:08;18.57;;;13.80;;
8652;SDS011;4364;52.426;9.424;2023-11-19T05:11:35;19.97;;;13.90;;
8652;SDS011;4364;52.426;9.424;2023-11-19T05:14:02;18.37;;;14.03;;
8652;SDS011;4364;52.426;9.424;2023-11-19T05:16:30;22.60;;;14.20;;
8652;SDS011;4364;52.426;9.424;2023-11-19T05:18:57;21.97;;;14.03;;
8652;SDS011;4364;52.426;9.424;2023-11-19T05:21:24;23.33;;;14.00;;
8652;SDS011;4364;52.426;9.424;2023-11-19T05:23:50;20.57;;;14.20;;
8652;SDS011;4364;52.426;9.424;2023-11-19T05:26:17;21.87;;;13.67;;
8652;SDS011;4364;52.426;9.424;2023-11-19T05:28:45;21.87;;;13.07;;
8652;SDS011;4364;52.426;9.424;2023-11-19T05:31:12;22.50;;;13.63;;
8652;SDS011;4364;52.426;9.424;2023-11-19T05:33:39;21.77;;;13.40;;
8652;SDS011;4364;52.426;9.424;2023-11-19T05:36:05;21.77;;;13.03;;
8652;SDS011;4364;52.426;9.424;2023-11-19T05:38:35;21.07;;;12.80;;
8652;SDS011;4364;52.426;9.424;2023-11-19T05:41:03;19.77;;;12.97;;
8652;SDS011;4364;52.426;9.424;2023-11-19T05:43:31;19.90;;;12.80;;
8652;SDS011;4364;52.426;9.424;2023-11-19T05:45:58;17.97;;;12.47;;
8652;SDS011;4364;52.426;9.424;2023-11-19T05:48:26;21.00;;;12.30;;
8652;SDS011;4364;52.426;9.424;2023-11-19T05:50:53;18.60;;;12.50;;
8652;SDS011;4364;52.426;9.424;2023-11-19T05:53:20;18.03;;;11.87;;
8652;SDS011;4364;52.426;9.424;2023-11-19T05:55:46;18.03;;;12.63;;
8652;SDS011;4364;52.426;9.424;2023-11-19T05:58:24;20.93;;;12.87;;
8652;SDS011;4364;52.426;9.424;2023-11-19T06:00:55;17.10;;;11.20;;
8652;SDS011;4364;52.426;9.424;2023-11-19T06:03:23;17.23;;;11.47;;
8652;SDS011;4364;52.426;9.424;2023-11-19T06:05:49;15.83;;;11.00;;
8652;SDS011;4364;52.426;9.424;2023-11-19T06:08:16;17.33;;;11.10;;
8652;SDS011;4364;52.426;9.424;2023-11-19T06:10:43;18.53;;;11.97;;
8652;SDS011;4364;52.426;9.424;2023-11-19T06:13:12;22.20;;;11.03;;
8652;SDS011;4364;52.426;9.424;2023-11-19T06:15:41;15.93;;;11.10;;
8652;SDS011;4364;52.426;9.424;2023-11-19T06:18:08;17.87;;;11.50;;
8652;SDS011;4364;52.426;9.424;2023-11-19T06:20:36;18.70;;;11.20;;
8652;SDS011;4364;52.426;9.424;2023-11-19T06:23:05;17.80;;;10.77;;
8652;SDS011;4364;52.426;9.424;2023-11-19T06:25:32;17.70;;;10.57;;
8652;SDS011;4364;52.426;9.424;2023-11-19T06:27:59;21.40;;;10.43;;
8652;SDS011;4364;52.426;9.424;2023-11-19T06:30:25;18.83;;;10.73;;
8652;SDS011;4364;52.426;9.424;2023-11-19T06:32:54;22.33;;;9.90;;
8652;SDS011;4364;52.426;9.424;2023-11-19T06:35:21;15.93;;;9.80;;
8652;SDS011;4364;52.426;9.424;2023-11-19T06:37:47;20.17;;;9.77;;
8652;SDS011;4364;52.426;9.424;2023-11-19T06:40:14;15.53;;;9.10;;
8652;SDS011;4364;52.426;9.424;2023-11-19T06:42:42;20.83;;;9.33;;
8652;SDS011;4364;52.426;9.424;2023-11-19T06:45:08;16.93;;;8.80;;
8652;SDS011;4364;52.426;9.424;2023-11-19T06:47:35;19.07;;;8.60;;
8652;SDS011;4364;52.426;9.424;2023-11-19T06:50:02;22.77;;;9.07;;
8652;SDS011;4364;52.426;9.424;2023-11-19T06:52:31;21.17;;;9.23;;
8652;SDS011;4364;52.426;9.424;2023-11-19T06:54:58;21.00;;;9.70;;
8652;SDS011;4364;52.426;9.424;2023-11-19T06:57:27;15.30;;;8.70;;
8652;SDS011;4364;52.426;9.424;2023-11-19T06:59:55;21.30;;;9.13;;
8652;SDS011;4364;52.426;9.424;2023-11-19T07:02:22;20.73;;;8.80;;
8652;SDS011;4364;52.426;9.424;2023-11-19T07:04:52;21.00;;;8.67;;
8652;SDS011;4364;52.426;9.424;2023-11-19T07:07:18;16.90;;;8.17;;
8652;SDS011;4364;52.426;9.424;2023-11-19T07:09:46;24.23;;;8.57;;
8652;SDS011;4364;52.426;9.424;2023-11-19T07:12:13;18.30;;;7.90;;
8652;SDS011;4364;52.426;9.424;2023-11-19T07:14:40;18.20;;;7.93;;
8652;SDS011;4364;52.426;9.424;2023-11-19T07:17:08;20.57;;;7.90;;
8652;SDS011;4364;52.426;9.424;2023-11-19T07:19:37;18.30;;;7.63;;
8652;SDS011;4364;52.426;9.424;2023-11-19T07:22:05;18.90;;;6.80;;
8652;SDS011;4364;52.426;9.424;2023-11-19T07:24:32;13.77;;;6.57;;
8652;SDS011;4364;52.426;9.424;2023-11-19T07:26:59;18.10;;;6.17;;
8652;SDS011;4364;52.426;9.424;2023-11-19T07:29:26;24.10;;;6.33;;
8652;SDS011;4364;52.426;9.424;2023-11-19T07:31:55;19.97;;;5.40;;
8652;SDS011;4364;52.426;9.424;2023-11-19T07:34:22;15.60;;;5.37;;
8652;SDS011;4364;52.426;9.424;2023-11-19T07:36:49;18.70;;;5.67;;
8652;SDS011;4364;52.426;9.424;2023-11-19T07:39:16;21.53;;;5.93;;
8652;SDS011;4364;52.426;9.424;2023-11-19T07:41:43;18.97;;;5.70;;
8652;SDS011;4364;52.426;9.424;2023-11-19T07:44:09;19.90;;;5.30;;
8652;SDS011;4364;52.426;9.424;2023-11-19T07:46:37;24.27;;;5.33;;
8652;SDS011;4364;52.426;9.424;2023-11-19T07:49:03;23.47;;;6.00;;
8652;SDS011;4364;52.426;9.424;2023-11-19T07:51:30;20.00;;;5.47;;
8652;SDS011;4364;52.426;9.424;2023-11-19T07:53:56;20.83;;;5.63;;
8652;SDS011;4364;52.426;9.424;2023-11-19T07:56:23;27.23;;;5.93;;
8652;SDS011;4364;52.426;9.424;2023-11-19T07:58:50;21.17;;;5.43;;
8652;SDS011;4364;52.426;9.424;2023-11-19T08:01:17;19.80;;;5.80;;
8652;SDS011;4364;52.426;9.424;2023-11-19T08:03:43;25.30;;;6.30;;
8652;SDS011;4364;52.426;9.424;2023-11-19T08:06:24;33.40;;;6.80;;
8652;SDS011;4364;52.426;9.424;2023-11-19T08:08:51;20.50;;;5.77;;
8652;SDS011;4364;52.426;9.424;2023-11-19T08:11:18;26.67;;;6.13;;
8652;SDS011;4364;52.426;9.424;2023-11-19T08:13:46;22.47;;;6.50;;
8652;SDS011;4364;52.426;9.424;2023-11-19T08:16:13;26.90;;;5.50;;
8652;SDS011;4364;52.426;9.424;2023-11-19T08:18:42;25.90;;;5.80;;
8652;SDS011;4364;52.426;9.424;2023-11-19T08:21:09;24.60;;;5.80;;
8652;SDS011;4364;52.426;9.424;2023-11-19T08:23:36;25.83;;;5.73;;
8652;SDS011;4364;52.426;9.424;2023-11-19T08:26:05;19.17;;;5.93;;
8652;SDS011;4364;52.426;9.424;2023-11-19T08:28:32;25.27;;;6.10;;
8652;SDS011;4364;52.426;9.424;2023-11-19T08:31:01;26.80;;;6.20;;
8652;SDS011;4364;52.426;9.424;2023-11-19T08:33:28;25.87;;;5.80;;
8652;SDS011;4364;52.426;9.424;2023-11-19T08:35:55;27.13;;;6.00;;
8652;SDS011;4364;52.426;9.424;2023-11-19T08:38:21;20.37;;;5.57;;
8652;SDS011;4364;52.426;9.424;2023-11-19T08:40:51;33.03;;;6.17;;
8652;SDS011;4364;52.426;9.424;2023-11-19T08:43:18;28.77;;;6.13;;
8652;SDS011;4364;52.426;9.424;2023-11-19T08:45:45;23.20;;;5.77;;
8652;SDS011;4364;52.426;9.424;2023-11-19T08:48:11;20.77;;;5.50;;
8652;SDS011;4364;52.426;9.424;2023-11-19T08:50:38;20.07;;;6.33;;
8652;SDS011;4364;52.426;9.424;2023-11-19T08:53:04;28.93;;;6.47;;
8652;SDS011;4364;52.426;9.424;2023-11-19T08:55:33;22.17;;;5.73;;
8652;SDS011;4364;52.426;9.424;2023-11-19T08:58:00;21.57;;;5.87;;
8652;SDS011;4364;52.426;9.424;2023-11-19T09:00:27;30.20;;;7.10;;
8652;SDS011;4364;52.426;9.424;2023-11-19T09:02:53;29.97;;;6.30;;
8652;SDS011;4364;52.426;9.424;2023-11-19T09:05:20;23.53;;;6.53;;
8652;SDS011;4364;52.426;9.424;2023-11-19T09:07:47;28.53;;;6.00;;
8652;SDS011;4364;52.426;9.424;2023-11-19T09:10:15;22.80;;;5.27;;
8652;SDS011;4364;52.426;9.424;2023-11-19T09:12:42;27.97;;;6.27;;
8652;SDS011;4364;52.426;9.424;2023-11-19T09:15:08;25.20;;;7.20;;
8652;SDS011;4364;52.426;9.424;2023-11-19T09:17:36;25.20;;;6.10;;
8652;SDS011;4364;52.426;9.424;2023-11-19T09:20:03;24.43;;;6.30;;
8652;SDS011;4364;52.426;9.424;2023-11-19T09:22:30;37.27;;;6.50;;
8652;SDS011;4364;52.426;9.424;2023-11-19T09:24:57;32.23;;;6.43;;
8652;SDS011;4364;52.426;9.424;2023-11-19T09:27:26;30.17;;;6.30;;
8652;SDS011;4364;52.426;9.424;2023-11-19T09:29:53;33.67;;;7.67;;
8652;SDS011;4364;52.426;9.424;2023-11-19T09:32:24;24.63;;;6.43;;
8652;SDS011;4364;52.426;9.424;2023-11-19T09:34:51;30.60;;;6.90;;
8652;SDS011;4364;52.426;9.424;2023-11-19T09:37:18;32.60;;;7.13;;
8652;SDS011;4364;52.426;9.424;2023-11-19T09:39:48;29.43;;;6.20;;
8652;SDS011;4364;52.426;9.424;2023-11-19T09:42:14;38.23;;;6.93;;
8652;SDS011;4364;52.426;9.424;2023-11-19T09:44:41;29.40;;;6.30;;
8652;SDS011;4364;52.426;9.424;2023-11-19T09:47:09;28.43;;;5.83;;
8652;SDS011;4364;52.426;9.424;2023-11-19T09:49:37;25.83;;;6.43;;
8652;SDS011;4364;52.426;9.424;2023-11-19T09:52:05;26.30;;;5.93;;
8652;SDS011;4364;52.426;9.424;2023-11-19T09:54:31;30.60;;;6.50;;
8652;SDS011;4364;52.426;9.424;2023-11-19T09:56:58;26.13;;;6.47;;
8652;SDS011;4364;52.426;9.424;2023-11-19T09:59:29;35.23;;;6.00;;
8652;SDS011;4364;52.426;9.424;2023-11-19T10:01:57;29.80;;;6.40;;
8652;SDS011;4364;52.426;9.424;2023-11-19T10:04:24;33.73;;;6.73;;
8652;SDS011;4364;52.426;9.424;2023-11-19T10:06:55;31.03;;;5.93;;
8652;SDS011;4364;52.426;9.424;2023-11-19T10:09:22;29.80;;;5.43;;
8652;SDS011;4364;52.426;9.424;2023-11-19T10:11:49;26.00;;;5.87;;
8652;SDS011;4364;52.426;9.424;2023-11-19T10:14:16;28.83;;;6.60;;
8652;SDS011;4364;52.426;9.424;2023-11-19T10:16:45;27.27;;;6.67;;
8652;SDS011;4364;52.426;9.424;2023-11-19T10:19:18;25.53;;;6.60;;
8652;SDS011;4364;52.426;9.424;2023-11-19T10:21:46;25.50;;;6.20;;
8652;SDS011;4364;52.426;9.424;2023-11-19T10:24:13;34.10;;;6.43;;
8652;SDS011;4364;52.426;9.424;2023-11-19T10:26:56;27.83;;;6.10;;
8652;SDS011;4364;52.426;9.424;2023-11-19T10:29:23;23.37;;;5.20;;
8652;SDS011;4364;52.426;9.424;2023-11-19T10:31:59;25.77;;;6.77;;
8652;SDS011;4364;52.426;9.424;2023-11-19T10:34:45;35.57;;;6.70;;
8652;SDS011;4364;52.426;9.424;2023-11-19T10:37:28;28.63;;;5.73;;
8652;SDS011;4364;52.426;9.424;2023-11-19T10:40:00;24.07;;;5.67;;
8652;SDS011;4364;52.426;9.424;2023-11-19T10:42:26;27.07;;;5.80;;
8652;SDS011;4364;52.426;9.424;2023-11-19T10:44:54;24.67;;;5.77;;
8652;SDS011;4364;52.426;9.424;2023-11-19T10:47:20;24.43;;;5.80;;
8652;SDS011;4364;52.426;9.424;2023-11-19T10:49:52;26.10;;;6.20;;
8652;SDS011;4364;52.426;9.424;2023-11-19T10:52:18;25.53;;;6.17;;
8652;SDS011;4364;52.426;9.424;2023-11-19T10:54:49;22.67;;;5.30;;
8652;SDS011;4364;52.426;9.424;2023-11-19T10:57:20;23.03;;;6.00;;
8652;SDS011;4364;52.426;9.424;2023-11-19T10:59:55;22.17;;;6.63;;
8652;SDS011;4364;52.426;9.424;2023-11-19T11:02:28;29.43;;;5.73;;
8652;SDS011;4364;52.426;9.424;2023-11-19T11:05:01;26.97;;;6.17;;
8652;SDS011;4364;52.426;9.424;2023-11-19T11:07:30;25.67;;;6.80;;
8652;SDS011;4364;52.426;9.424;2023-11-19T11:10:07;25.07;;;7.03;;
8652;SDS011;4364;52.426;9.424;2023-11-19T11:12:36;30.03;;;7.13;;
8652;SDS011;4364;52.426;9.424;2023-11-19T11:15:04;27.30;;;6.77;;
8652;SDS011;4364;52.426;9.424;2023-11-19T11:17:32;25.47;;;6.37;;
8652;SDS011;4364;52.426;9.424;2023-11-19T11:19:59;24.77;;;6.00;;
8652;SDS011;4364;52.426;9.424;2023-11-19T11:22:28;25.80;;;6.03;;
8652;SDS011;4364;52.426;9.424;2023-11-19T11:31:00;24.10;;;6.73;;
8652;SDS011;4364;52.426;9.424;2023-11-19T11:36:30;28.27;;;6.80;;
8652;SDS011;4364;52.426;9.424;2023-11-19T11:38:59;28.33;;;6.53;;
8652;SDS011;4364;52.426;9.424;2023-11-19T11:41:27;30.80;;;6.77;;
8652;SDS011;4364;52.426;9.424;2023-11-19T11:43:56;28.20;;;6.80;;
8652;SDS011;4364;52.426;9.424;2023-11-19T11:49:00;33.60;;;7.53;;
8652;SDS011;4364;52.426;9.424;2023-11-19T11:57:00;29.37;;;7.07;;
8652;SDS011;4364;52.426;9.424;2023-11-19T12:02:07;31.03;;;6.93;;
8652;SDS011;4364;52.426;9.424;2023-11-19T12:04:37;29.73;;;6.53;;
8652;SDS011;4364;52.426;9.424;2023-11-19T12:07:11;32.33;;;7.03;;
8652;SDS011;4364;52.426;9.424;2023-11-19T12:09:42;26.00;;;6.63;;
8652;SDS011;4364;52.426;9.424;2023-11-19T12:14:59;26.67;;;6.30;;
8652;SDS011;4364;52.426;9.424;2023-11-19T12:20:01;26.37;;;5.77;;
8652;SDS011;4364;52.426;9.424;2023-11-19T12:22:28;29.13;;;6.13;;
8652;SDS011;4364;52.426;9.424;2023-11-19T12:24:55;29.47;;;6.27;;
8652;SDS011;4364;52.426;9.424;2023-11-19T12:27:22;25.93;;;5.87;;
8652;SDS011;4364;52.426;9.424;2023-11-19T12:29:49;26.00;;;4.90;;
8652;SDS011;4364;52.426;9.424;2023-11-19T12:32:16;25.77;;;6.00;;
8652;SDS011;4364;52.426;9.424;2023-11-19T12:34:43;25.23;;;6.00;;
8652;SDS011;4364;52.426;9.424;2023-11-19T12:37:11;29.73;;;6.60;;
8652;SDS011;4364;52.426;9.424;2023-11-19T12:39:38;29.53;;;6.80;;
8652;SDS011;4364;52.426;9.424;2023-11-19T12:42:04;24.17;;;6.33;;
8652;SDS011;4364;52.426;9.424;2023-11-19T12:44:31;26.80;;;5.80;;
8652;SDS011;4364;52.426;9.424;2023-11-19T12:47:04;20.97;;;6.00;;
8652;SDS011;4364;52.426;9.424;2023-11-19T12:49:33;27.57;;;6.10;;
8652;SDS011;4364;52.426;9.424;2023-11-19T12:52:01;26.73;;;6.10;;
8652;SDS011;4364;52.426;9.424;2023-11-19T12:54:32;25.50;;;6.07;;
8652;SDS011;4364;52.426;9.424;2023-11-19T12:57:02;27.17;;;5.53;;
8652;SDS011;4364;52.426;9.424;2023-11-19T12:59:29;25.10;;;5.80;;
8652;SDS011;4364;52.426;9.424;2023-11-19T13:01:56;28.17;;;6.13;;
8652;SDS011;4364;52.426;9.424;2023-11-19T13:04:27;22.87;;;5.77;;
8652;SDS011;4364;52.426;9.424;2023-11-19T13:06:55;26.97;;;5.80;;
8652;SDS011;4364;52.426;9.424;2023-11-19T13:09:26;24.93;;;6.37;;
8652;SDS011;4364;52.426;9.424;2023-11-19T13:11:53;21.43;;;5.77;;
8652;SDS011;4364;52.426;9.424;2023-11-19T13:14:22;26.43;;;6.43;;
8652;SDS011;4364;52.426;9.424;2023-11-19T13:16:49;20.50;;;5.87;;
8652;SDS011;4364;52.426;9.424;2023-11-19T13:19:16;23.60;;;6.23;;
8652;SDS011;4364;52.426;9.424;2023-11-19T13:21:45;27.90;;;7.43;;
8652;SDS011;4364;52.426;9.424;2023-11-19T13:24:15;27.43;;;5.60;;
8652;SDS011;4364;52.426;9.424;2023-11-19T13:26:41;33.40;;;6.83;;
8652;SDS011;4364;52.426;9.424;2023-11-19T13:29:08;36.40;;;7.57;;
8652;SDS011;4364;52.426;9.424;2023-11-19T13:31:36;29.67;;;6.57;;
8652;SDS011;4364;52.426;9.424;2023-11-19T13:34:03;27.50;;;6.60;;
8652;SDS011;4364;52.426;9.424;2023-11-19T13:36:30;26.10;;;5.93;;
8652;SDS011;4364;52.426;9.424;2023-11-19T13:38:57;32.07;;;7.57;;
8652;SDS011;4364;52.426;9.424;2023-11-19T13:41:25;33.37;;;7.07;;
8652;SDS011;4364;52.426;9.424;2023-11-19T13:43:52;22.70;;;6.10;;
8652;SDS011;4364;52.426;9.424;2023-11-19T13:46:19;27.67;;;6.13;;
8652;SDS011;4364;52.426;9.424;2023-11-19T13:48:47;28.00;;;6.77;;
8652;SDS011;4364;52.426;9.424;2023-11-19T13:51:15;24.70;;;6.23;;
8652;SDS011;4364;52.426;9.424;2023-11-19T13:53:42;26.10;;;6.10;;
8652;SDS011;4364;52.426;9.424;2023-11-19T13:56:12;24.00;;;5.90;;
8652;SDS011;4364;52.426;9.424;2023-11-19T14:02:34;23.50;;;6.07;;
8652;SDS011;4364;52.426;9.424;2023-11-19T14:05:01;21.63;;;5.27;;
8652;SDS011;4364;52.426;9.424;2023-11-19T14:07:28;28.07;;;7.03;;
8652;SDS011;4364;52.426;9.424;2023-11-19T14:09:54;27.67;;;8.13;;
8652;SDS011;4364;52.426;9.424;2023-11-19T14:12:21;28.03;;;6.77;;
8652;SDS011;4364;52.426;9.424;2023-11-19T14:14:48;25.63;;;6.17;;
8652;SDS011;4364;52.426;9.424;2023-11-19T14:17:15;28.97;;;7.07;;
8652;SDS011;4364;52.426;9.424;2023-11-19T14:19:45;25.03;;;5.97;;
8652;SDS011;4364;52.426;9.424;2023-11-19T14:22:11;29.70;;;5.73;;
8652;SDS011;4364;52.426;9.424;2023-11-19T14:24:38;25.47;;;4.80;;
8652;SDS011;4364;52.426;9.424;2023-11-19T14:27:08;28.20;;;6.43;;
8652;SDS011;4364;52.426;9.424;2023-11-19T14:29:36;26.47;;;5.93;;
8652;SDS011;4364;52.426;9.424;2023-11-19T14:32:03;27.83;;;6.30;;
8652;SDS011;4364;52.426;9.424;2023-11-19T14:34:30;24.10;;;6.10;;
8652;SDS011;4364;52.426;9.424;2023-11-19T14:36:57;26.77;;;5.70;;
8652;SDS011;4364;52.426;9.424;2023-11-19T14:39:24;18.30;;;5.33;;
8652;SDS011;4364;52.426;9.424;2023-11-19T14:41:51;19.93;;;5.73;;
8652;SDS011;4364;52.426;9.424;2023-11-19T14:44:19;19.23;;;4.80;;
8652;SDS011;4364;52.426;9.424;2023-11-19T14:46:46;23.53;;;5.27;;
8652;SDS011;4364;52.426;9.424;2023-11-19T14:49:13;20.37;;;5.83;;
8652;SDS011;4364;52.426;9.424;2023-11-19T14:51:40;28.27;;;10.57;;
8652;SDS011;4364;52.426;9.424;2023-11-19T14:54:06;30.97;;;11.57;;
8652;SDS011;4364;52.426;9.424;2023-11-19T14:56:33;21.90;;;6.10;;
8652;SDS011;4364;52.426;9.424;2023-11-19T14:58:59;26.10;;;7.23;;
8652;SDS011;4364;52.426;9.424;2023-11-19T15:01:26;24.17;;;6.27;;
8652;SDS011;4364;52.426;9.424;2023-11-19T15:03:54;31.60;;;6.27;;
8652;SDS011;4364;52.426;9.424;2023-11-19T15:06:26;26.20;;;6.23;;
8652;SDS011;4364;52.426;9.424;2023-11-19T15:08:53;23.13;;;5.90;;
8652;SDS011;4364;52.426;9.424;2023-11-19T15:11:21;23.53;;;6.07;;
8652;SDS011;4364;52.426;9.424;2023-11-19T15:13:47;22.50;;;5.53;;
8652;SDS011;4364;52.426;9.424;2023-11-19T15:16:15;20.17;;;5.30;;
8652;SDS011;4364;52.426;9.424;2023-11-19T15:18:48;21.57;;;5.80;;
8652;SDS011;4364;52.426;9.424;2023-11-19T15:21:15;26.50;;;7.37;;
8652;SDS011;4364;52.426;9.424;2023-11-19T15:23:41;35.20;;;14.80;;
8652;SDS011;4364;52.426;9.424;2023-11-19T15:26:08;27.67;;;10.17;;
8652;SDS011;4364;52.426;9.424;2023-11-19T15:28:36;31.53;;;9.17;;
8652;SDS011;4364;52.426;9.424;2023-11-19T15:31:03;26.37;;;8.23;;
8652;SDS011;4364;52.426;9.424;2023-11-19T15:33:30;23.33;;;6.60;;
8652;SDS011;4364;52.426;9.424;2023-11-19T15:35:56;23.13;;;6.63;;